createdAt,value
2022-08-03T00:00:26.212Z,8.13
2022-08-03T00:02:57.345Z,4.57
2022-08-03T00:05:23.978Z,5.75
2022-08-03T00:07:50.474Z,8.98
2022-08-03T00:10:17.304Z,4.43
2022-08-03T00:12:43.870Z,6.38
2022-08-03T00:15:15.254Z,6.40
2022-08-03T00:17:52.782Z,6.10
2022-08-03T00:20:21.498Z,6.18
2022-08-03T00:22:52.662Z,7.00
2022-08-03T00:25:19.370Z,5.43
2022-08-03T00:27:45.923Z,5.70
2022-08-03T00:30:15.209Z,7.35
2022-08-03T00:32:45.364Z,4.82
2022-08-03T00:35:36.726Z,7.03
2022-08-03T00:38:04.680Z,5.68
2022-08-03T00:40:31.429Z,6.50
2022-08-03T00:43:02.674Z,5.95
2022-08-03T00:45:32.129Z,6.90
2022-08-03T00:47:59.613Z,5.07
2022-08-03T00:50:29.419Z,4.43
2022-08-03T00:52:59.554Z,5.18
2022-08-03T00:55:26.466Z,3.90
2022-08-03T00:57:53.793Z,6.65
2022-08-03T01:00:23.124Z,7.53
2022-08-03T01:02:54.388Z,7.97
2022-08-03T01:05:21.739Z,5.80
2022-08-03T01:08:00.278Z,8.07
2022-08-03T01:10:50.190Z,5.80
2022-08-03T01:14:03.835Z,5.05
2022-08-03T01:16:21.820Z,3.80
2022-08-03T01:19:20.176Z,6.82
2022-08-03T01:21:49.721Z,6.28
2022-08-03T01:24:44.486Z,5.20
2022-08-03T01:27:25.955Z,10.15
2022-08-03T01:29:59.961Z,4.47
2022-08-03T01:32:54.498Z,7.35
2022-08-03T01:35:32.300Z,5.90
2022-08-03T01:38:05.859Z,5.38
2022-08-03T01:40:35.688Z,5.93
2022-08-03T01:43:08.862Z,7.57
2022-08-03T01:45:37.879Z,4.95
2022-08-03T01:48:05.555Z,7.63
2022-08-03T01:50:34.287Z,6.63
2022-08-03T01:53:03.648Z,6.63
2022-08-03T01:55:33.246Z,10.07
2022-08-03T01:58:05.785Z,8.25
2022-08-03T02:00:36.335Z,6.55
2022-08-03T02:03:06.591Z,6.80
2022-08-03T02:05:34.051Z,7.47
2022-08-03T02:08:03.454Z,8.25
2022-08-03T02:10:35.259Z,7.88
2022-08-03T02:13:08.361Z,8.65
2022-08-03T02:15:37.804Z,6.68
2022-08-03T02:18:07.928Z,5.15
2022-08-03T02:20:37.694Z,12.98
2022-08-03T02:23:07.197Z,7.05
2022-08-03T02:25:38.703Z,6.35
2022-08-03T02:28:10.480Z,9.32
2022-08-03T02:30:39.291Z,6.18
2022-08-03T02:33:12.588Z,8.35
2022-08-03T02:35:40.534Z,7.47
2022-08-03T02:38:10.006Z,6.97
2022-08-03T02:40:38.438Z,10.65
2022-08-03T02:43:12.175Z,11.57
2022-08-03T02:45:45.606Z,8.07
2022-08-03T02:48:16.166Z,8.73
2022-08-03T02:50:45.035Z,7.50
2022-08-03T02:53:17.915Z,7.70
2022-08-03T02:55:47.629Z,8.55
2022-08-03T02:58:17.449Z,7.30
2022-08-03T03:00:45.252Z,10.93
2022-08-03T03:03:15.678Z,10.18
2022-08-03T03:05:54.927Z,10.80
2022-08-03T03:08:27.484Z,9.60
2022-08-03T03:11:00.138Z,8.02
2022-08-03T03:13:32.333Z,6.55
2022-08-03T03:16:04.186Z,8.27
2022-08-03T03:18:34.711Z,9.75
2022-08-03T03:21:04.294Z,6.22
2022-08-03T03:23:36.599Z,9.05
2022-08-03T03:26:03.470Z,6.97
2022-08-03T03:28:31.438Z,6.43
2022-08-03T03:30:58.857Z,7.70
2022-08-03T03:33:28.240Z,7.05
2022-08-03T03:35:55.691Z,8.77
2022-08-03T03:38:22.223Z,9.43
2022-08-03T03:40:49.059Z,8.68
2022-08-03T03:43:18.897Z,9.75
2022-08-03T03:45:46.847Z,7.25
2022-08-03T03:48:13.748Z,9.88
2022-08-03T03:50:43.338Z,9.43
2022-08-03T03:53:14.361Z,9.52
2022-08-03T03:55:59.675Z,8.93
2022-08-03T03:58:28.894Z,10.85
2022-08-03T04:00:55.604Z,8.32
2022-08-03T04:03:23.913Z,8.02
2022-08-03T04:06:09.094Z,8.50
2022-08-03T04:08:54.387Z,9.32
2022-08-03T04:11:27.453Z,11.65
2022-08-03T04:14:09.580Z,10.52
2022-08-03T04:16:43.582Z,12.73
2022-08-03T04:19:14.083Z,11.93
2022-08-03T04:21:43.386Z,8.52
2022-08-03T04:24:13.526Z,10.85
2022-08-03T04:26:43.218Z,12.68
2022-08-03T04:29:11.921Z,10.40
2022-08-03T04:31:39.790Z,10.88
2022-08-03T04:34:08.156Z,15.43
2022-08-03T04:36:39.863Z,13.82
2022-08-03T04:39:19.781Z,15.45
2022-08-03T04:42:07.613Z,18.60
2022-08-03T04:45:03.423Z,16.75
2022-08-03T04:47:34.175Z,21.05
2022-08-03T04:50:02.353Z,24.42
2022-08-03T04:52:29.077Z,28.40
2022-08-03T04:54:55.713Z,24.98
2022-08-03T04:57:23.667Z,23.25
2022-08-03T04:59:59.606Z,23.65
2022-08-03T05:02:28.735Z,19.63
2022-08-03T05:04:59.740Z,18.88
2022-08-03T05:07:26.446Z,12.88
2022-08-03T05:10:03.612Z,11.10
2022-08-03T05:12:32.890Z,11.32
2022-08-03T05:15:01.384Z,12.05
2022-08-03T05:17:28.770Z,9.88
2022-08-03T05:19:55.846Z,9.90
2022-08-03T05:22:23.214Z,9.98
2022-08-03T05:24:49.854Z,9.35
2022-08-03T05:27:19.465Z,10.43
2022-08-03T05:29:47.239Z,9.15
2022-08-03T05:32:13.999Z,9.57
2022-08-03T05:34:40.797Z,11.10
2022-08-03T05:37:07.432Z,11.20
2022-08-03T05:39:35.281Z,13.05
2022-08-03T05:42:02.466Z,8.35
2022-08-03T05:44:29.391Z,12.10
2022-08-03T05:46:57.656Z,11.48
2022-08-03T05:49:24.271Z,9.63
2022-08-03T05:52:00.268Z,10.73
2022-08-03T05:54:56.211Z,10.60
2022-08-03T05:57:25.333Z,12.43
2022-08-03T05:59:58.431Z,8.18
2022-08-03T06:02:26.775Z,8.88
2022-08-03T06:04:57.751Z,10.25
2022-08-03T06:07:24.424Z,12.25
2022-08-03T06:10:35.857Z,7.93
2022-08-03T06:12:38.914Z,9.85
2022-08-03T06:15:05.994Z,10.32
2022-08-03T06:17:37.374Z,7.07
2022-08-03T06:20:05.687Z,11.05
2022-08-03T06:22:32.251Z,7.60
2022-08-03T06:25:04.850Z,6.30
2022-08-03T06:27:36.733Z,7.32
2022-08-03T06:30:05.355Z,5.43
2022-08-03T06:32:32.025Z,13.73
2022-08-03T06:34:58.754Z,6.80
2022-08-03T06:37:27.011Z,7.25
2022-08-03T06:39:54.174Z,7.68
2022-08-03T06:42:20.724Z,5.75
2022-08-03T06:44:53.666Z,5.32
2022-08-03T06:47:20.243Z,8.15
2022-08-03T06:50:13.031Z,4.85
2022-08-03T06:52:37.682Z,8.20
2022-08-03T06:55:07.164Z,5.78
2022-08-03T06:57:33.751Z,10.27
2022-08-03T07:00:06.353Z,7.07
2022-08-03T07:02:38.721Z,9.38
2022-08-03T07:05:10.581Z,8.57
2022-08-03T07:07:37.949Z,9.43
2022-08-03T07:10:05.533Z,4.50
2022-08-03T07:12:33.897Z,10.48
2022-08-03T07:15:04.685Z,5.78
2022-08-03T07:17:33.586Z,8.18
2022-08-03T07:20:01.534Z,6.45
2022-08-03T07:22:29.433Z,6.00
2022-08-03T07:24:57.615Z,6.43
2022-08-03T07:27:27.095Z,7.50
2022-08-03T07:29:54.207Z,6.43
2022-08-03T07:32:21.067Z,6.53
2022-08-03T07:34:48.583Z,7.05
2022-08-03T07:37:15.614Z,8.38
2022-08-03T07:39:42.370Z,5.85
2022-08-03T07:42:09.050Z,7.63
2022-08-03T07:44:36.584Z,12.07
2022-08-03T07:47:03.283Z,5.88
2022-08-03T07:49:30.569Z,6.13
2022-08-03T07:52:16.479Z,7.00
2022-08-03T07:54:43.628Z,3.97
2022-08-03T07:57:10.390Z,6.93
2022-08-03T08:00:01.897Z,7.25
2022-08-03T08:02:26.311Z,4.25
2022-08-03T08:04:52.894Z,5.25
2022-08-03T08:07:22.659Z,8.70
2022-08-03T08:09:49.211Z,9.23
2022-08-03T08:12:16.388Z,11.07
2022-08-03T08:14:48.096Z,8.23
2022-08-03T08:17:14.976Z,10.13
2022-08-03T08:19:50.506Z,7.00
2022-08-03T08:22:23.473Z,6.50
2022-08-03T08:25:01.115Z,8.25
2022-08-03T08:27:28.067Z,7.35
2022-08-03T08:30:19.348Z,11.00
2022-08-03T08:32:53.467Z,8.63
2022-08-03T08:35:20.309Z,7.83
2022-08-03T08:37:51.101Z,6.13
2022-08-03T08:40:21.921Z,6.13
2022-08-03T08:43:00.174Z,7.55
2022-08-03T08:45:27.606Z,7.82
2022-08-03T08:47:59.735Z,5.95
2022-08-03T08:50:28.730Z,8.80
2022-08-03T08:53:02.616Z,6.75
2022-08-03T08:55:30.066Z,4.00
2022-08-03T08:58:20.912Z,6.22
2022-08-03T09:00:48.521Z,10.57
2022-08-03T09:03:29.366Z,10.27
2022-08-03T09:05:59.933Z,8.15
2022-08-03T09:08:26.886Z,9.20
2022-08-03T09:10:53.426Z,10.07
2022-08-03T09:13:25.035Z,6.97
2022-08-03T09:16:13.988Z,7.97
2022-08-03T09:18:42.805Z,6.75
2022-08-03T09:21:34.160Z,4.97
2022-08-03T09:24:07.056Z,6.60
2022-08-03T09:26:36.893Z,8.80
2022-08-03T09:29:13.191Z,9.98
2022-08-03T09:31:43.704Z,8.18
2022-08-03T09:34:15.312Z,7.70
2022-08-03T09:36:44.895Z,7.13
2022-08-03T09:39:19.518Z,11.38
2022-08-03T09:42:09.193Z,10.90
2022-08-03T09:44:45.282Z,8.85
2022-08-03T09:47:14.219Z,3.53
2022-08-03T09:49:43.341Z,8.80
2022-08-03T09:52:33.608Z,7.53
2022-08-03T09:55:23.796Z,11.05
2022-08-03T09:58:11.649Z,8.80
2022-08-03T10:01:01.796Z,15.23
2022-08-03T10:03:36.588Z,16.08
2022-08-03T10:06:23.162Z,11.18
2022-08-03T10:09:24.850Z,7.20
2022-08-03T10:11:51.667Z,8.65
2022-08-03T10:14:23.613Z,8.32
2022-08-03T10:16:50.191Z,8.18
2022-08-03T10:19:16.847Z,8.95
2022-08-03T10:21:50.759Z,10.48
2022-08-03T10:24:25.225Z,9.30
2022-08-03T10:26:53.543Z,10.18
2022-08-03T10:29:27.344Z,6.95
2022-08-03T10:31:58.754Z,7.60
2022-08-03T10:34:31.932Z,7.30
2022-08-03T10:37:00.419Z,9.48
2022-08-03T10:39:30.714Z,6.70
2022-08-03T10:42:00.065Z,9.52
2022-08-03T10:44:39.856Z,9.68
2022-08-03T10:47:10.449Z,14.18
2022-08-03T10:49:37.968Z,6.38
2022-08-03T10:52:13.233Z,11.65
2022-08-03T10:55:12.083Z,9.02
2022-08-03T10:57:58.339Z,11.15
2022-08-03T11:00:27.930Z,9.55
2022-08-03T11:03:17.622Z,12.10
2022-08-03T11:05:54.363Z,12.88
2022-08-03T11:08:29.442Z,16.83
2022-08-03T11:11:23.653Z,10.23
2022-08-03T11:13:57.202Z,8.60
2022-08-03T11:16:26.350Z,11.80
2022-08-03T11:18:59.997Z,6.93
2022-08-03T11:21:48.241Z,10.40
2022-08-03T11:24:36.895Z,16.92
2022-08-03T11:27:19.227Z,12.15
2022-08-03T11:30:01.876Z,10.35
2022-08-03T11:32:37.221Z,14.20
2022-08-03T11:35:24.777Z,10.82
2022-08-03T11:38:03.353Z,11.23
2022-08-03T11:40:49.427Z,7.75
2022-08-03T11:43:31.269Z,14.25
2022-08-03T11:46:04.054Z,14.25
2022-08-03T11:48:45.001Z,11.68
2022-08-03T11:51:25.878Z,9.45
2022-08-03T11:53:58.637Z,11.43
2022-08-03T11:56:26.023Z,11.93
2022-08-03T11:59:19.290Z,12.35
2022-08-03T12:01:42.047Z,8.10
2022-08-03T12:04:10.759Z,9.50
2022-08-03T12:06:55.615Z,8.60
2022-08-03T12:09:22.433Z,12.82
2022-08-03T12:11:59.699Z,6.70
2022-08-03T12:14:52.983Z,12.75
2022-08-03T12:17:20.708Z,6.65
2022-08-03T12:19:47.416Z,10.95
2022-08-03T12:22:14.554Z,7.60
2022-08-03T12:24:43.686Z,8.45
2022-08-03T12:27:10.400Z,7.28
2022-08-03T12:29:37.121Z,6.28
2022-08-03T12:32:04.038Z,9.88
2022-08-03T12:34:49.826Z,8.65
2022-08-03T12:37:23.517Z,7.57
2022-08-03T12:40:01.606Z,5.13
2022-08-03T12:42:36.337Z,6.70
2022-08-03T12:45:25.579Z,7.70
2022-08-03T12:47:57.802Z,12.93
2022-08-03T12:50:31.424Z,12.40
2022-08-03T12:53:04.515Z,7.03
2022-08-03T12:55:57.937Z,10.57
2022-08-03T12:58:35.936Z,9.38
2022-08-03T13:01:09.479Z,5.00
2022-08-03T13:03:50.415Z,6.82
2022-08-03T13:06:24.206Z,7.72
2022-08-03T13:09:03.188Z,7.30
2022-08-03T13:11:55.693Z,8.60
2022-08-03T13:14:19.670Z,7.45
2022-08-03T13:16:47.344Z,6.38
2022-08-03T13:19:15.717Z,4.03
2022-08-03T13:22:01.931Z,9.85
2022-08-03T13:24:32.336Z,8.15
2022-08-03T13:27:00.046Z,5.15
2022-08-03T13:29:26.659Z,6.13
2022-08-03T13:31:53.278Z,6.65
2022-08-03T13:34:23.790Z,6.32
2022-08-03T13:37:09.243Z,5.70
2022-08-03T13:39:57.681Z,6.53
2022-08-03T13:42:23.285Z,8.93
2022-08-03T13:44:49.861Z,5.45
2022-08-03T13:47:16.866Z,8.95
2022-08-03T13:49:59.435Z,10.45
2022-08-03T13:52:28.073Z,8.30
2022-08-03T13:54:54.915Z,7.03
2022-08-03T13:58:18.986Z,6.82
2022-08-03T14:00:08.706Z,7.03
2022-08-03T14:02:35.352Z,6.00
2022-08-03T14:05:06.267Z,6.65
2022-08-03T14:07:32.851Z,4.85
2022-08-03T14:09:59.538Z,7.95
2022-08-03T14:12:26.040Z,6.95
2022-08-03T14:14:53.988Z,5.35
2022-08-03T14:17:23.270Z,6.05
2022-08-03T14:19:52.715Z,6.80
2022-08-03T14:22:21.465Z,5.25
2022-08-03T14:24:49.338Z,10.15
2022-08-03T14:27:20.483Z,6.47
2022-08-03T14:29:47.218Z,5.78
2022-08-03T14:32:13.798Z,4.28
2022-08-03T14:34:44.811Z,7.10
2022-08-03T14:37:11.374Z,8.07
2022-08-03T14:42:25.269Z,6.60
2022-08-03T14:44:56.100Z,5.03
2022-08-03T14:47:25.484Z,6.82
2022-08-03T14:50:36.977Z,5.60
2022-08-03T14:52:41.557Z,4.45
2022-08-03T14:55:09.721Z,7.68
2022-08-03T14:57:36.286Z,5.35
2022-08-03T15:00:04.203Z,5.38
2022-08-03T15:02:30.893Z,5.20
2022-08-03T15:04:57.495Z,4.60
2022-08-03T15:07:24.114Z,5.88
2022-08-03T15:09:50.705Z,7.45
2022-08-03T15:12:17.299Z,7.82
2022-08-03T15:14:45.168Z,5.85
2022-08-03T15:17:11.841Z,5.57
2022-08-03T15:20:01.030Z,5.82
2022-08-03T15:22:34.692Z,2.83
2022-08-03T15:26:02.357Z,6.75
2022-08-03T15:28:03.379Z,7.10
2022-08-03T15:30:31.393Z,8.90
2022-08-03T15:32:59.182Z,4.47
2022-08-03T15:35:25.918Z,6.97
2022-08-03T15:37:52.482Z,7.07
2022-08-03T15:40:19.122Z,6.72
2022-08-03T15:42:45.737Z,5.25
2022-08-03T15:45:12.750Z,6.60
2022-08-03T15:47:39.541Z,23.75
2022-08-03T15:50:09.644Z,5.18
2022-08-03T15:52:36.489Z,4.40
2022-08-03T15:55:08.442Z,7.35
2022-08-03T15:59:03.130Z,8.43
2022-08-03T16:00:33.441Z,6.55
2022-08-03T16:03:05.527Z,4.80
2022-08-03T16:05:32.300Z,5.57
2022-08-03T16:08:02.641Z,4.50
2022-08-03T16:10:30.595Z,5.55
2022-08-03T16:13:02.321Z,3.85
2022-08-03T16:15:28.946Z,6.25
2022-08-03T16:17:55.579Z,4.22
2022-08-03T16:20:31.726Z,4.18
2022-08-03T16:23:11.204Z,6.35
2022-08-03T16:25:42.017Z,6.78
2022-08-03T16:28:13.808Z,5.95
2022-08-03T16:30:45.734Z,5.25
2022-08-03T16:33:17.854Z,6.18
2022-08-03T16:35:46.466Z,4.88
2022-08-03T16:38:18.590Z,5.70
2022-08-03T16:40:47.008Z,5.50
2022-08-03T16:43:18.799Z,3.10
2022-08-03T16:45:46.518Z,4.57
2022-08-03T16:48:16.483Z,3.17
2022-08-03T16:50:44.185Z,3.22
2022-08-03T16:53:16.906Z,4.90
2022-08-03T16:55:51.936Z,5.63
2022-08-03T16:58:34.459Z,4.72
2022-08-03T17:01:22.230Z,7.28
2022-08-03T17:04:03.014Z,7.63
2022-08-03T17:06:34.408Z,5.32
2022-08-03T17:09:03.384Z,4.28
2022-08-03T17:11:32.906Z,7.55
2022-08-03T17:14:09.169Z,3.33
2022-08-03T17:16:38.334Z,4.50
2022-08-03T17:19:06.881Z,4.05
2022-08-03T17:21:39.059Z,7.47
2022-08-03T17:24:12.112Z,3.75
2022-08-03T17:26:46.777Z,3.03
2022-08-03T17:29:23.130Z,3.78
2022-08-03T17:31:52.523Z,3.70
2022-08-03T17:34:26.635Z,4.05
2022-08-03T17:37:04.756Z,3.75
2022-08-03T17:39:57.217Z,6.38
2022-08-03T17:42:30.829Z,2.60
2022-08-03T17:45:02.434Z,4.00
2022-08-03T17:47:42.902Z,6.95
2022-08-03T17:50:25.788Z,4.90
2022-08-03T17:53:24.513Z,6.68
2022-08-03T17:56:38.689Z,3.15
2022-08-03T17:59:50.838Z,5.90
2022-08-03T18:02:50.411Z,5.20
2022-08-03T18:05:21.935Z,4.65
2022-08-03T18:10:49.855Z,4.00
2022-08-03T18:13:24.234Z,7.15
2022-08-03T18:16:01.211Z,4.68
2022-08-03T18:18:37.855Z,4.80
2022-08-03T18:21:09.399Z,6.40
2022-08-03T18:23:50.129Z,3.22
2022-08-03T18:26:19.008Z,5.47
2022-08-03T18:28:48.351Z,2.88
2022-08-03T18:31:33.055Z,4.43
2022-08-03T18:34:17.132Z,5.90
2022-08-03T18:36:55.984Z,4.47
2022-08-03T18:39:22.723Z,3.92
2022-08-03T18:41:49.286Z,4.88
2022-08-03T18:44:46.459Z,4.38
2022-08-03T18:47:18.273Z,4.65
2022-08-03T18:50:09.542Z,4.43
2022-08-03T18:53:02.691Z,5.43
2022-08-03T18:56:01.392Z,7.07
2022-08-03T18:58:39.050Z,6.10
2022-08-03T19:01:56.450Z,7.25
2022-08-03T19:04:20.946Z,6.32
2022-08-03T19:07:07.917Z,6.53
2022-08-03T19:10:03.789Z,5.47
2022-08-03T19:12:44.622Z,6.68
2022-08-03T19:15:15.705Z,7.65
2022-08-03T19:17:50.125Z,5.43
2022-08-03T19:20:22.290Z,5.82
2022-08-03T19:22:55.749Z,7.70
2022-08-03T19:25:34.281Z,5.00
2022-08-03T19:28:03.642Z,8.57
2022-08-03T19:30:38.926Z,6.18
2022-08-03T19:33:11.083Z,9.02
2022-08-03T19:35:51.595Z,5.90
2022-08-03T19:38:28.168Z,8.88
2022-08-03T19:41:02.560Z,5.45
2022-08-03T19:44:02.258Z,5.82
2022-08-03T19:46:37.234Z,7.85
2022-08-03T19:49:15.075Z,8.60
2022-08-03T19:51:58.920Z,9.02
2022-08-03T19:54:53.883Z,19.77
2022-08-03T19:57:24.783Z,11.18
2022-08-03T19:59:53.402Z,9.02
2022-08-03T20:02:26.526Z,6.65
2022-08-03T20:04:59.933Z,6.45
2022-08-03T20:07:28.899Z,5.95
2022-08-03T20:09:57.113Z,7.03
2022-08-03T20:12:27.653Z,6.93
2022-08-03T20:14:58.966Z,6.40
2022-08-03T20:17:54.468Z,7.50
2022-08-03T20:20:20.343Z,6.28
2022-08-03T20:22:53.986Z,7.05
2022-08-03T20:25:38.217Z,2.83
2022-08-03T20:28:13.955Z,5.43
2022-08-03T20:30:46.327Z,6.68
2022-08-03T20:33:19.531Z,7.20
2022-08-03T20:35:54.763Z,6.03
2022-08-03T20:38:27.285Z,5.65
2022-08-03T20:40:54.560Z,5.03
2022-08-03T20:43:23.205Z,5.40
2022-08-03T20:46:00.028Z,6.00
2022-08-03T20:48:37.341Z,5.50
2022-08-03T20:51:05.342Z,5.82
2022-08-03T20:53:59.549Z,5.13
2022-08-03T20:56:40.063Z,7.95
2022-08-03T20:59:19.889Z,6.85
2022-08-03T21:01:47.039Z,6.40
2022-08-03T21:04:14.899Z,4.45
2022-08-03T21:06:55.979Z,7.17
2022-08-03T21:09:33.490Z,7.78
2022-08-03T21:12:11.768Z,6.53
2022-08-03T21:13:05.313Z,4.10
2022-08-03T21:14:43.776Z,5.88
2022-08-03T21:17:25.152Z,9.52
2022-08-03T21:20:00.885Z,5.55
2022-08-03T21:22:32.227Z,6.57
2022-08-03T21:25:03.939Z,5.50
2022-08-03T21:27:31.851Z,9.20
2022-08-03T21:30:04.326Z,8.43
2022-08-03T21:32:33.285Z,7.60
2022-08-03T21:35:05.305Z,9.05
2022-08-03T21:37:31.829Z,6.25
2022-08-03T21:39:58.442Z,6.93
2022-08-03T21:42:25.133Z,7.30
2022-08-03T21:44:53.768Z,5.82
2022-08-03T21:47:24.449Z,5.82
2022-08-03T21:50:07.874Z,6.60
2022-08-03T21:52:43.376Z,8.02
2022-08-03T21:55:18.683Z,6.50
2022-08-03T21:57:51.958Z,7.93
2022-08-03T22:00:20.934Z,7.70
2022-08-03T22:02:58.385Z,5.53
2022-08-03T22:05:42.662Z,7.28
2022-08-03T22:08:13.419Z,8.85
2022-08-03T22:10:40.835Z,4.53
2022-08-03T22:13:14.055Z,5.70
2022-08-03T22:15:41.509Z,6.18
2022-08-03T22:18:08.425Z,6.43
2022-08-03T22:20:35.424Z,7.47
2022-08-03T22:23:06.303Z,9.90
2022-08-03T22:25:35.632Z,5.68
2022-08-03T22:28:08.595Z,4.90
2022-08-03T22:30:35.651Z,7.07
2022-08-03T22:33:11.021Z,7.28
2022-08-03T22:35:44.380Z,6.65
2022-08-03T22:38:15.120Z,7.95
2022-08-03T22:40:41.772Z,10.45
2022-08-03T22:43:09.845Z,8.05
2022-08-03T22:46:07.332Z,4.95
2022-08-03T22:48:26.059Z,5.55
2022-08-03T22:50:52.639Z,6.93
2022-08-03T22:53:22.020Z,5.45
2022-08-03T22:55:49.595Z,5.80
2022-08-03T22:58:16.908Z,5.45
2022-08-03T23:00:56.264Z,8.18
2022-08-03T23:04:00.479Z,4.70
2022-08-03T23:06:21.521Z,6.43
2022-08-03T23:08:50.261Z,4.70
2022-08-03T23:11:18.612Z,7.35
2022-08-03T23:13:53.624Z,9.20
2022-08-03T23:18:59.593Z,6.10
2022-08-03T23:21:59.697Z,5.13
2022-08-03T23:24:29.825Z,5.63
2022-08-03T23:26:58.227Z,6.20
2022-08-03T23:29:29.079Z,5.45
2022-08-03T23:31:56.369Z,5.97
2022-08-03T23:34:42.229Z,5.03
2022-08-03T23:37:09.419Z,5.63
2022-08-03T23:39:36.949Z,5.35
2022-08-03T23:42:05.951Z,5.07
2022-08-03T23:44:34.737Z,8.10
2022-08-03T23:47:01.371Z,5.80
2022-08-03T23:49:27.888Z,7.50
2022-08-03T23:52:43.877Z,5.22
2022-08-03T23:55:29.991Z,5.45
2022-08-03T23:58:19.517Z,6.05
